createdAt,value
2023-03-01T00:01:41.620Z,51.27
2023-03-01T00:04:08.959Z,51.75
2023-03-01T00:06:36.862Z,50.60
2023-03-01T00:09:04.489Z,50.91
2023-03-01T00:11:35.018Z,50.63
2023-03-01T00:14:03.470Z,50.31
2023-03-01T00:16:34.698Z,51.88
2023-03-01T00:19:01.586Z,51.63
2023-03-01T00:21:30.061Z,51.50
2023-03-01T00:23:57.375Z,51.75
2023-03-01T00:26:26.100Z,51.33
2023-03-01T00:28:54.161Z,51.38
2023-03-01T00:31:23.754Z,50.69
2023-03-01T00:33:55.022Z,49.88
2023-03-01T00:36:21.956Z,50.81
2023-03-01T00:38:48.912Z,50.29
2023-03-01T00:41:19.284Z,49.70
2023-03-01T00:43:46.485Z,49.98
2023-03-01T00:46:18.934Z,50.77
2023-03-01T00:48:46.322Z,50.47
2023-03-01T00:51:24.847Z,50.47
2023-03-01T00:53:54.861Z,50.58
2023-03-01T00:56:22.413Z,50.20
2023-03-01T00:58:49.727Z,51.45
2023-03-01T01:01:23.151Z,50.18
2023-03-01T01:03:55.125Z,51.07
2023-03-01T01:06:24.520Z,50.10
2023-03-01T01:08:53.058Z,51.37
2023-03-01T01:11:21.151Z,51.21
2023-03-01T01:13:51.979Z,52.21
2023-03-01T01:16:21.116Z,50.64
2023-03-01T01:18:48.380Z,51.35
2023-03-01T01:21:17.968Z,50.67
2023-03-01T01:23:46.514Z,50.23
2023-03-01T01:26:22.442Z,51.70
2023-03-01T01:28:51.068Z,50.97
2023-03-01T01:31:19.476Z,51.00
2023-03-01T01:33:47.593Z,50.44
2023-03-01T01:36:14.520Z,51.39
2023-03-01T01:38:43.528Z,51.30
2023-03-01T01:41:14.823Z,50.33
2023-03-01T01:43:44.150Z,51.12
2023-03-01T01:46:30.262Z,51.66
2023-03-01T01:49:11.850Z,52.32
2023-03-01T01:51:43.656Z,52.12
2023-03-01T01:54:15.509Z,53.25
2023-03-01T01:56:47.273Z,53.12
2023-03-01T01:59:15.264Z,54.47
2023-03-01T02:01:42.354Z,53.37
2023-03-01T02:04:09.270Z,52.28
2023-03-01T02:06:51.599Z,52.77
2023-03-01T02:09:21.838Z,54.22
2023-03-01T02:11:49.969Z,53.04
2023-03-01T02:14:17.565Z,53.16
2023-03-01T02:16:44.962Z,53.66
2023-03-01T02:19:23.728Z,52.47
2023-03-01T02:22:20.050Z,51.60
2023-03-01T02:25:02.342Z,52.05
2023-03-01T02:27:39.398Z,51.88
2023-03-01T02:30:07.734Z,53.82
2023-03-01T02:32:36.548Z,52.16
2023-03-01T02:35:07.546Z,51.91
2023-03-01T02:37:37.055Z,51.84
2023-03-01T02:40:12.612Z,52.00
2023-03-01T02:42:56.438Z,52.66
2023-03-01T02:45:24.202Z,52.20
2023-03-01T02:47:51.120Z,52.91
2023-03-01T02:50:26.713Z,51.51
2023-03-01T02:52:57.490Z,52.01
2023-03-01T02:55:25.356Z,52.71
2023-03-01T02:57:52.460Z,53.10
2023-03-01T03:00:29.750Z,52.70
2023-03-01T03:02:58.180Z,52.85
2023-03-01T03:05:28.562Z,53.31
2023-03-01T03:07:58.862Z,52.40
2023-03-01T03:10:30.088Z,53.39
2023-03-01T03:13:00.180Z,53.22
2023-03-01T03:15:28.754Z,53.70
2023-03-01T03:17:58.729Z,52.76
2023-03-01T03:20:31.565Z,52.75
2023-03-01T03:23:00.801Z,52.00
2023-03-01T03:25:30.508Z,52.09
2023-03-01T03:27:59.095Z,53.30
2023-03-01T03:30:36.648Z,52.03
2023-03-01T03:33:03.482Z,52.54
2023-03-01T03:35:38.747Z,52.33
2023-03-01T03:38:10.345Z,52.61
2023-03-01T03:40:39.947Z,52.77
2023-03-01T03:43:09.722Z,52.44
2023-03-01T03:45:37.622Z,52.60
2023-03-01T03:48:06.538Z,52.47
2023-03-01T03:50:34.114Z,52.79
2023-03-01T03:53:07.705Z,54.01
2023-03-01T03:55:35.570Z,53.95
2023-03-01T03:58:07.944Z,54.57
2023-03-01T04:00:37.541Z,55.42
2023-03-01T04:03:05.053Z,53.58
2023-03-01T04:05:32.125Z,52.93
2023-03-01T04:08:08.413Z,53.88
2023-03-01T04:10:45.012Z,53.09
2023-03-01T04:13:14.404Z,53.87
2023-03-01T04:15:41.587Z,54.02
2023-03-01T04:18:10.040Z,52.69
2023-03-01T04:20:37.233Z,52.40
2023-03-01T04:23:17.463Z,52.72
2023-03-01T04:25:55.140Z,52.60
2023-03-01T04:28:28.390Z,53.35
2023-03-01T04:30:57.174Z,53.12
2023-03-01T04:33:24.938Z,53.65
2023-03-01T04:35:51.816Z,54.25
2023-03-01T04:38:20.275Z,54.61
2023-03-01T04:40:47.064Z,52.85
2023-03-01T04:43:17.742Z,52.27
2023-03-01T04:45:45.080Z,51.42
2023-03-01T04:48:12.425Z,52.39
2023-03-01T04:50:40.674Z,53.45
2023-03-01T04:53:07.808Z,52.10
2023-03-01T04:55:34.860Z,53.12
2023-03-01T04:58:04.514Z,52.63
2023-03-01T05:00:31.528Z,53.31
2023-03-01T05:03:01.375Z,52.47
2023-03-01T05:05:36.197Z,52.32
2023-03-01T05:08:05.923Z,52.00
2023-03-01T05:10:36.289Z,51.97
2023-03-01T05:13:08.003Z,51.81
2023-03-01T05:15:34.893Z,52.52
2023-03-01T05:18:01.858Z,52.02
2023-03-01T05:20:30.554Z,52.67
2023-03-01T05:23:00.438Z,52.70
2023-03-01T05:25:34.179Z,53.31
2023-03-01T05:28:07.315Z,53.19
2023-03-01T05:30:40.361Z,52.26
2023-03-01T05:33:14.383Z,54.02
2023-03-01T05:35:46.059Z,53.08
2023-03-01T05:38:16.752Z,52.99
2023-03-01T05:40:45.292Z,52.52
2023-03-01T05:43:17.906Z,53.08
2023-03-01T05:45:45.119Z,52.57
2023-03-01T05:48:13.852Z,54.94
2023-03-01T05:50:44.308Z,56.08
2023-03-01T05:53:12.545Z,55.75
2023-03-01T05:55:41.261Z,56.35
2023-03-01T05:58:18.105Z,55.05
2023-03-01T06:00:46.919Z,55.06
2023-03-01T06:03:20.197Z,53.20
2023-03-01T06:05:52.523Z,53.10
2023-03-01T06:08:21.482Z,53.50
2023-03-01T06:10:48.786Z,52.80
2023-03-01T06:13:16.527Z,52.55
2023-03-01T06:15:46.970Z,53.36
2023-03-01T06:18:14.143Z,55.52
2023-03-01T06:20:40.844Z,53.23
2023-03-01T06:23:10.667Z,52.93
2023-03-01T06:25:38.463Z,53.09
2023-03-01T06:28:06.681Z,53.19
2023-03-01T06:30:38.992Z,53.93
2023-03-01T06:33:06.375Z,55.75
2023-03-01T06:35:34.663Z,53.57
2023-03-01T06:38:06.570Z,55.64
2023-03-01T06:40:36.243Z,56.13
2023-03-01T06:43:03.630Z,53.41
2023-03-01T06:45:30.810Z,53.95
2023-03-01T06:48:07.838Z,54.66
2023-03-01T06:50:35.830Z,54.49
2023-03-01T06:53:05.734Z,54.58
2023-03-01T06:55:33.578Z,53.70
2023-03-01T06:58:05.480Z,51.87
2023-03-01T07:00:34.288Z,52.35
2023-03-01T07:03:04.464Z,52.98
2023-03-01T07:05:41.110Z,52.74
2023-03-01T07:08:10.425Z,52.73
2023-03-01T07:10:37.422Z,51.87
2023-03-01T07:13:08.106Z,52.37
2023-03-01T07:15:35.292Z,53.09
2023-03-01T07:18:03.177Z,53.74
2023-03-01T07:20:30.315Z,53.20
2023-03-01T07:22:59.465Z,54.17
2023-03-01T07:25:26.840Z,54.89
2023-03-01T07:27:54.565Z,54.41
2023-03-01T07:30:22.150Z,54.41
2023-03-01T07:32:49.168Z,54.64
2023-03-01T07:35:16.541Z,55.10
2023-03-01T07:37:43.484Z,55.15
2023-03-01T07:40:15.250Z,54.67
2023-03-01T07:42:42.074Z,54.61
2023-03-01T07:45:13.883Z,55.14
2023-03-01T07:47:41.210Z,54.78
2023-03-01T07:50:08.888Z,55.28
2023-03-01T07:52:35.816Z,54.88
2023-03-01T07:55:02.659Z,54.78
2023-03-01T07:57:29.424Z,54.28
2023-03-01T07:59:56.381Z,55.05
2023-03-01T08:02:23.255Z,54.72
2023-03-01T08:04:50.159Z,53.36
2023-03-01T08:07:20.002Z,53.90
2023-03-01T08:09:46.846Z,53.60
2023-03-01T08:12:13.751Z,53.92
2023-03-01T08:14:40.764Z,54.29
2023-03-01T08:17:07.642Z,53.53
2023-03-01T08:19:35.665Z,53.43
2023-03-01T08:22:03.861Z,52.31
2023-03-01T08:24:32.166Z,53.00
2023-03-01T08:27:00.614Z,53.13
2023-03-01T08:29:27.507Z,52.52
2023-03-01T08:31:54.552Z,51.57
2023-03-01T08:34:21.480Z,51.03
2023-03-01T08:36:51.957Z,50.61
2023-03-01T08:39:20.654Z,49.73
2023-03-01T08:41:53.476Z,50.43
2023-03-01T08:44:22.280Z,50.47
2023-03-01T08:46:51.185Z,49.41
2023-03-01T08:49:20.270Z,50.06
2023-03-01T08:51:49.147Z,48.82
2023-03-01T08:54:21.872Z,48.03
2023-03-01T08:56:49.834Z,47.12
2023-03-01T08:59:18.602Z,46.95
2023-03-01T09:01:48.811Z,47.37
2023-03-01T09:04:16.429Z,47.00
2023-03-01T09:06:43.303Z,47.15
2023-03-01T09:09:19.394Z,46.13
2023-03-01T09:11:47.592Z,45.31
2023-03-01T09:14:15.767Z,45.21
2023-03-01T09:16:45.006Z,45.73
2023-03-01T09:19:12.366Z,44.25
2023-03-01T09:21:41.295Z,44.80
2023-03-01T09:24:14.685Z,43.97
2023-03-01T09:26:41.798Z,43.57
2023-03-01T09:29:10.771Z,42.25
2023-03-01T09:31:37.990Z,43.50
2023-03-01T09:34:05.510Z,41.93
2023-03-01T09:36:33.229Z,42.08
2023-03-01T09:39:01.299Z,41.13
2023-03-01T09:41:31.099Z,41.20
2023-03-01T09:44:05.768Z,40.01
2023-03-01T09:46:39.137Z,39.95
2023-03-01T09:49:13.292Z,39.08
2023-03-01T09:51:40.905Z,39.45
2023-03-01T09:54:11.060Z,39.80
2023-03-01T09:57:14.521Z,38.72
2023-03-01T10:00:05.747Z,37.77
2023-03-01T10:03:03.386Z,37.90
2023-03-01T10:05:53.810Z,37.38
2023-03-01T10:08:42.747Z,37.26
2023-03-01T10:11:41.964Z,38.13
2023-03-01T10:14:46.043Z,37.50
2023-03-01T10:17:39.623Z,37.69
2023-03-01T10:20:22.741Z,38.48
2023-03-01T10:22:53.638Z,36.76
2023-03-01T10:25:24.312Z,35.64
2023-03-01T10:27:55.361Z,36.67
2023-03-01T10:30:52.653Z,37.53
2023-03-01T10:33:24.654Z,36.94
2023-03-01T10:35:52.314Z,37.32
2023-03-01T10:38:21.853Z,37.74
2023-03-01T10:40:56.104Z,36.17
2023-03-01T10:43:27.959Z,36.24
2023-03-01T10:45:54.906Z,36.42
2023-03-01T10:48:30.624Z,35.47
2023-03-01T10:51:00.500Z,35.32
2023-03-01T10:53:44.536Z,34.15
2023-03-01T10:56:16.733Z,35.70
2023-03-01T10:59:06.814Z,34.59
2023-03-01T11:01:36.656Z,34.49
2023-03-01T11:04:06.762Z,34.68
2023-03-01T11:06:35.937Z,34.29
2023-03-01T11:09:24.233Z,34.20
2023-03-01T11:11:56.404Z,36.48
2023-03-01T11:14:28.156Z,33.73
2023-03-01T11:17:07.341Z,33.93
2023-03-01T11:19:39.828Z,33.22
2023-03-01T11:22:22.082Z,33.08
2023-03-01T11:25:08.460Z,34.21
2023-03-01T11:27:44.312Z,35.08
2023-03-01T11:30:27.141Z,33.68
2023-03-01T11:33:09.629Z,34.48
2023-03-01T11:35:50.638Z,33.64
2023-03-01T11:38:25.927Z,33.76
2023-03-01T11:41:04.328Z,33.30
2023-03-01T11:43:55.929Z,34.40
2023-03-01T11:46:35.003Z,34.72
2023-03-01T11:49:17.403Z,34.19
2023-03-01T11:52:23.066Z,33.58
2023-03-01T11:55:01.569Z,33.99
2023-03-01T11:57:58.658Z,33.80
2023-03-01T12:00:38.249Z,33.90
2023-03-01T12:03:42.896Z,33.59
2023-03-01T12:06:39.414Z,33.84
2023-03-01T12:09:18.470Z,33.80
2023-03-01T12:12:23.502Z,33.76
2023-03-01T12:15:01.687Z,34.45
2023-03-01T12:17:46.751Z,34.82
2023-03-01T12:20:32.643Z,33.06
2023-03-01T12:23:20.330Z,32.07
2023-03-01T12:25:54.770Z,32.39
2023-03-01T12:28:49.722Z,32.23
2023-03-01T12:32:01.746Z,33.10
2023-03-01T12:34:34.672Z,33.01
2023-03-01T12:37:16.679Z,32.74
2023-03-01T12:39:57.274Z,33.82
2023-03-01T12:42:44.320Z,32.68
2023-03-01T12:45:33.211Z,32.44
2023-03-01T12:48:24.324Z,31.50
2023-03-01T12:51:00.840Z,30.89
2023-03-01T12:53:32.096Z,31.27
2023-03-01T12:56:13.249Z,32.38
2023-03-01T12:58:56.284Z,31.07
2023-03-01T13:01:42.919Z,31.62
2023-03-01T13:04:46.763Z,31.56
2023-03-01T13:07:56.085Z,31.68
2023-03-01T13:10:40.745Z,31.01
2023-03-01T13:13:21.368Z,30.68
2023-03-01T13:15:52.571Z,30.89
2023-03-01T13:18:26.839Z,31.33
2023-03-01T13:20:58.457Z,31.33
2023-03-01T13:23:40.663Z,31.58
2023-03-01T13:26:19.460Z,31.02
2023-03-01T13:28:54.459Z,31.68
2023-03-01T13:31:21.370Z,31.50
2023-03-01T13:33:55.936Z,31.38
2023-03-01T13:36:29.387Z,31.10
2023-03-01T13:38:56.545Z,31.59
2023-03-01T13:41:44.915Z,31.26
2023-03-01T13:44:29.451Z,31.76
2023-03-01T13:47:02.554Z,31.02
2023-03-01T13:49:55.297Z,32.70
2023-03-01T13:52:33.377Z,31.20
2023-03-01T13:55:03.062Z,31.09
2023-03-01T13:57:35.655Z,30.87
2023-03-01T14:00:03.055Z,31.16
2023-03-01T14:02:32.673Z,31.29
2023-03-01T14:05:01.587Z,30.93
2023-03-01T14:07:32.753Z,30.41
2023-03-01T14:10:02.547Z,31.06
2023-03-01T14:12:40.517Z,30.67
2023-03-01T14:15:35.617Z,30.90
2023-03-01T14:18:12.392Z,30.81
2023-03-01T14:20:52.421Z,30.53
2023-03-01T14:23:24.633Z,30.06
2023-03-01T14:26:01.384Z,30.84
2023-03-01T14:28:38.446Z,30.63
2023-03-01T14:31:47.187Z,30.83
2023-03-01T14:34:28.338Z,30.52
2023-03-01T14:36:55.255Z,31.17
2023-03-01T14:39:30.206Z,31.16
2023-03-01T14:42:00.595Z,31.18
2023-03-01T14:44:30.926Z,30.42
2023-03-01T14:46:59.453Z,30.83
2023-03-01T14:49:30.842Z,29.74
2023-03-01T14:51:58.838Z,30.28
2023-03-01T14:54:30.978Z,30.44
2023-03-01T14:57:02.406Z,30.50
2023-03-01T14:59:30.131Z,30.16
2023-03-01T15:01:59.340Z,30.17
2023-03-01T15:04:30.866Z,30.43
2023-03-01T15:07:05.836Z,29.93
2023-03-01T15:09:37.624Z,30.75
2023-03-01T15:12:26.903Z,30.64
2023-03-01T15:15:03.912Z,30.66
2023-03-01T15:17:39.751Z,30.42
2023-03-01T15:20:17.653Z,30.22
2023-03-01T15:22:49.606Z,30.06
2023-03-01T15:25:22.747Z,30.42
2023-03-01T15:27:52.152Z,30.95
2023-03-01T15:30:24.328Z,30.84
2023-03-01T15:33:23.843Z,30.92
2023-03-01T15:35:54.689Z,31.13
2023-03-01T15:38:26.208Z,30.93
2023-03-01T15:40:53.582Z,31.30
2023-03-01T15:43:45.343Z,31.01
2023-03-01T15:46:35.366Z,31.35
2023-03-01T15:49:06.458Z,31.93
2023-03-01T15:51:36.966Z,31.20
2023-03-01T15:54:16.355Z,31.85
2023-03-01T15:56:43.124Z,32.41
2023-03-01T15:59:12.873Z,32.03
2023-03-01T16:01:43.455Z,32.13
2023-03-01T16:04:21.516Z,32.46
2023-03-01T16:06:55.761Z,32.90
2023-03-01T16:09:24.601Z,33.46
2023-03-01T16:11:53.013Z,33.56
2023-03-01T16:14:20.011Z,32.87
2023-03-01T16:16:49.332Z,33.63
2023-03-01T16:19:16.935Z,32.82
2023-03-01T16:21:47.613Z,33.43
2023-03-01T16:24:15.687Z,33.50
2023-03-01T16:26:43.499Z,33.36
2023-03-01T16:29:10.295Z,33.95
2023-03-01T16:31:37.069Z,33.33
2023-03-01T16:34:04.580Z,33.46
2023-03-01T16:36:33.179Z,33.68
2023-03-01T16:39:01.735Z,33.69
2023-03-01T16:41:29.546Z,34.45
2023-03-01T16:43:57.131Z,35.08
2023-03-01T16:46:29.174Z,35.31
2023-03-01T16:48:56.847Z,34.64
2023-03-01T16:51:24.546Z,35.14
2023-03-01T16:53:52.075Z,35.38
2023-03-01T16:56:20.334Z,35.74
2023-03-01T16:58:47.157Z,36.75
2023-03-01T17:01:20.449Z,36.00
2023-03-01T17:03:49.631Z,36.30
2023-03-01T17:06:21.368Z,35.93
2023-03-01T17:08:48.211Z,36.21
2023-03-01T17:11:18.136Z,37.08
2023-03-01T17:13:45.208Z,36.48
2023-03-01T17:16:15.877Z,36.30
2023-03-01T17:18:42.959Z,36.76
2023-03-01T17:21:11.165Z,36.47
2023-03-01T17:23:40.716Z,36.69
2023-03-01T17:26:08.191Z,37.28
2023-03-01T17:28:39.205Z,37.26
2023-03-01T17:31:07.626Z,38.06
2023-03-01T17:33:36.504Z,37.79
2023-03-01T17:36:03.623Z,37.74
2023-03-01T17:38:30.686Z,38.20
2023-03-01T17:41:01.076Z,37.87
2023-03-01T17:43:28.262Z,38.22
2023-03-01T17:45:57.650Z,38.32
2023-03-01T17:48:25.879Z,38.21
2023-03-01T17:50:53.009Z,38.44
2023-03-01T17:53:20.400Z,37.81
2023-03-01T17:55:49.754Z,38.42
2023-03-01T17:58:24.107Z,38.87
2023-03-01T18:00:51.157Z,38.96
2023-03-01T18:03:18.023Z,39.57
2023-03-01T18:05:46.168Z,39.25
2023-03-01T18:08:13.612Z,39.75
2023-03-01T18:10:41.245Z,39.39
2023-03-01T18:13:10.082Z,39.92
2023-03-01T18:15:37.242Z,40.03
2023-03-01T18:18:04.398Z,40.79
2023-03-01T18:20:32.955Z,42.75
2023-03-01T18:23:00.135Z,45.55
2023-03-01T18:25:27.391Z,44.99
2023-03-01T18:27:54.214Z,45.55
2023-03-01T18:30:20.894Z,46.44
2023-03-01T18:32:49.681Z,46.17
2023-03-01T18:35:16.749Z,45.21
2023-03-01T18:37:43.968Z,44.13
2023-03-01T18:40:12.987Z,44.10
2023-03-01T18:42:39.884Z,43.54
2023-03-01T18:45:06.838Z,43.26
2023-03-01T18:47:34.155Z,43.95
2023-03-01T18:50:00.854Z,43.66
2023-03-01T18:52:27.731Z,43.67
2023-03-01T18:54:58.542Z,46.24
2023-03-01T18:57:25.443Z,45.63
2023-03-01T18:59:52.320Z,45.30
2023-03-01T19:02:19.393Z,46.26
2023-03-01T19:04:47.366Z,46.73
2023-03-01T19:07:14.362Z,47.26
2023-03-01T19:09:41.305Z,46.12
2023-03-01T19:12:08.002Z,46.33
2023-03-01T19:14:35.397Z,45.70
2023-03-01T19:17:02.811Z,45.21
2023-03-01T19:19:29.996Z,45.16
2023-03-01T19:22:05.741Z,46.55
2023-03-01T19:24:34.930Z,46.09
2023-03-01T19:27:02.814Z,45.27
2023-03-01T19:29:29.634Z,44.73
2023-03-01T19:31:56.499Z,46.02
2023-03-01T19:34:24.709Z,46.01
2023-03-01T19:36:55.307Z,45.55
2023-03-01T19:39:22.088Z,44.84
2023-03-01T19:41:50.118Z,45.04
2023-03-01T19:44:17.499Z,45.71
2023-03-01T19:46:44.536Z,44.74
2023-03-01T19:49:13.634Z,44.39
2023-03-01T19:51:40.633Z,45.00
2023-03-01T19:54:09.935Z,44.75
2023-03-01T19:56:38.704Z,44.98
2023-03-01T19:59:06.909Z,44.29
2023-03-01T20:01:35.079Z,44.98
2023-03-01T20:04:02.566Z,44.38
2023-03-01T20:06:30.430Z,44.27
2023-03-01T20:08:58.005Z,44.49
2023-03-01T20:11:25.699Z,44.60
2023-03-01T20:13:52.722Z,45.22
2023-03-01T20:16:20.885Z,45.29
2023-03-01T20:18:48.266Z,45.74
2023-03-01T20:21:24.157Z,45.12
2023-03-01T20:23:52.515Z,44.72
2023-03-01T20:26:22.726Z,44.84
2023-03-01T20:28:52.682Z,45.69
2023-03-01T20:31:22.468Z,45.14
2023-03-01T20:33:54.980Z,45.39
2023-03-01T20:36:22.724Z,45.40
2023-03-01T20:38:55.659Z,45.03
2023-03-01T20:41:26.178Z,45.55
2023-03-01T20:44:00.295Z,45.49
2023-03-01T20:46:32.159Z,46.18
2023-03-01T20:48:59.820Z,45.94
2023-03-01T20:51:29.682Z,46.78
2023-03-01T20:53:57.197Z,45.77
2023-03-01T20:56:27.636Z,46.61
2023-03-01T20:59:05.397Z,46.10
2023-03-01T21:01:32.757Z,46.12
2023-03-01T21:04:00.535Z,46.22
2023-03-01T21:06:27.437Z,46.65
2023-03-01T21:08:56.150Z,47.55
2023-03-01T21:11:26.734Z,46.87
2023-03-01T21:13:55.343Z,47.42
2023-03-01T21:16:22.990Z,46.97
2023-03-01T21:18:50.293Z,46.80
2023-03-01T21:21:19.543Z,47.21
2023-03-01T21:23:47.126Z,47.83
2023-03-01T21:26:20.017Z,46.33
2023-03-01T21:28:47.979Z,47.07
2023-03-01T21:31:20.690Z,47.69
2023-03-01T21:33:53.998Z,47.63
2023-03-01T21:36:23.903Z,48.31
2023-03-01T21:38:52.535Z,47.54
2023-03-01T21:41:28.522Z,47.94
2023-03-01T21:43:57.806Z,48.09
2023-03-01T21:46:26.231Z,47.51
2023-03-01T21:48:55.403Z,48.67
2023-03-01T21:51:26.636Z,48.45
2023-03-01T21:53:56.263Z,48.30
2023-03-01T21:56:29.608Z,48.20
2023-03-01T21:58:58.359Z,47.91
2023-03-01T22:01:27.382Z,47.13
2023-03-01T22:03:56.333Z,47.59
2023-03-01T22:06:28.248Z,47.99
2023-03-01T22:09:01.176Z,47.94
2023-03-01T22:11:28.587Z,47.81
2023-03-01T22:13:56.718Z,47.94
2023-03-01T22:16:30.697Z,47.33
2023-03-01T22:19:00.357Z,48.26
2023-03-01T22:21:28.274Z,47.98
2023-03-01T22:23:56.468Z,47.78
2023-03-01T22:26:34.970Z,47.99
2023-03-01T22:29:05.909Z,48.91
2023-03-01T22:31:33.055Z,48.41
2023-03-01T22:34:00.772Z,48.10
2023-03-01T22:36:28.877Z,48.28
2023-03-01T22:39:01.936Z,47.08
2023-03-01T22:41:31.276Z,47.25
2023-03-01T22:44:01.279Z,48.24
2023-03-01T22:46:28.585Z,47.22
2023-03-01T22:48:56.740Z,47.89
2023-03-01T22:51:29.225Z,49.16
2023-03-01T22:53:58.070Z,48.41
2023-03-01T22:56:29.416Z,47.95
2023-03-01T22:59:02.634Z,48.60
2023-03-01T23:01:30.715Z,49.51
2023-03-01T23:03:58.205Z,47.67
2023-03-01T23:06:25.147Z,49.07
2023-03-01T23:08:57.165Z,49.12
2023-03-01T23:11:25.922Z,49.77
2023-03-01T23:13:54.311Z,50.25
2023-03-01T23:16:26.064Z,50.12
2023-03-01T23:19:06.258Z,48.96
2023-03-01T23:21:33.707Z,49.48
2023-03-01T23:24:00.741Z,48.21
2023-03-01T23:26:29.569Z,49.37
2023-03-01T23:28:57.391Z,49.62
2023-03-01T23:31:30.276Z,50.37
2023-03-01T23:33:57.498Z,50.59
2023-03-01T23:36:31.209Z,50.24
2023-03-01T23:39:06.460Z,51.00
2023-03-01T23:41:39.073Z,51.49
2023-03-01T23:44:06.632Z,50.72
2023-03-01T23:46:36.169Z,51.78
2023-03-01T23:49:04.904Z,52.18
2023-03-01T23:51:31.758Z,51.07
2023-03-01T23:54:01.783Z,52.46
2023-03-01T23:56:35.370Z,52.79
2023-03-01T23:59:11.987Z,53.22
